sensor_id;sensor_type;location;lat;lon;timestamp;temperature;humidity
9861;DHT22;4969;52.304;4.968;2022-08-19T00:00:29;19.07;82.01
9861;DHT22;4969;52.304;4.968;2022-08-19T00:02:55;19.02;81.75
9861;DHT22;4969;52.304;4.968;2022-08-19T00:05:22;19.02;82.53
9861;DHT22;4969;52.304;4.968;2022-08-19T00:07:50;18.97;82.45
9861;DHT22;4969;52.304;4.968;2022-08-19T00:10:17;19.00;82.98
9861;DHT22;4969;52.304;4.968;2022-08-19T00:12:44;19.00;83.14
9861;DHT22;4969;52.304;4.968;2022-08-19T00:15:12;18.96;82.89
9861;DHT22;4969;52.304;4.968;2022-08-19T00:17:40;18.95;82.79
9861;DHT22;4969;52.304;4.968;2022-08-19T00:20:08;18.89;82.92
9861;DHT22;4969;52.304;4.968;2022-08-19T00:22:35;18.90;83.27
9861;DHT22;4969;52.304;4.968;2022-08-19T00:25:05;18.88;83.24
9861;DHT22;4969;52.304;4.968;2022-08-19T00:27:31;18.82;83.30
9861;DHT22;4969;52.304;4.968;2022-08-19T00:29:58;18.78;83.51
9861;DHT22;4969;52.304;4.968;2022-08-19T00:32:25;18.80;83.58
9861;DHT22;4969;52.304;4.968;2022-08-19T00:34:52;18.78;83.75
9861;DHT22;4969;52.304;4.968;2022-08-19T00:37:18;18.73;83.84
9861;DHT22;4969;52.304;4.968;2022-08-19T00:39:47;18.72;83.86
9861;DHT22;4969;52.304;4.968;2022-08-19T00:42:15;18.72;83.81
9861;DHT22;4969;52.304;4.968;2022-08-19T00:44:42;18.72;83.82
9861;DHT22;4969;52.304;4.968;2022-08-19T00:47:09;18.69;83.84
9861;DHT22;4969;52.304;4.968;2022-08-19T00:49:41;18.68;84.08
9861;DHT22;4969;52.304;4.968;2022-08-19T00:52:13;18.69;83.69
9861;DHT22;4969;52.304;4.968;2022-08-19T00:54:41;18.61;83.40
9861;DHT22;4969;52.304;4.968;2022-08-19T00:57:12;18.59;83.76
9861;DHT22;4969;52.304;4.968;2022-08-19T00:59:44;18.58;83.87
9861;DHT22;4969;52.304;4.968;2022-08-19T01:02:12;18.58;83.93
9861;DHT22;4969;52.304;4.968;2022-08-19T01:04:38;18.55;83.81
9861;DHT22;4969;52.304;4.968;2022-08-19T01:07:05;18.55;83.88
9861;DHT22;4969;52.304;4.968;2022-08-19T01:09:32;18.54;84.07
9861;DHT22;4969;52.304;4.968;2022-08-19T01:11:59;18.57;84.44
9861;DHT22;4969;52.304;4.968;2022-08-19T01:14:26;18.55;84.27
9861;DHT22;4969;52.304;4.968;2022-08-19T01:16:54;18.54;84.39
9861;DHT22;4969;52.304;4.968;2022-08-19T01:19:27;18.48;84.30
9861;DHT22;4969;52.304;4.968;2022-08-19T01:21:59;18.43;84.39
9861;DHT22;4969;52.304;4.968;2022-08-19T01:24:28;18.35;84.30
9861;DHT22;4969;52.304;4.968;2022-08-19T01:26:56;18.34;84.47
9861;DHT22;4969;52.304;4.968;2022-08-19T01:29:24;18.27;84.60
9861;DHT22;4969;52.304;4.968;2022-08-19T01:31:50;18.23;84.56
9861;DHT22;4969;52.304;4.968;2022-08-19T01:34:18;18.14;84.31
9861;DHT22;4969;52.304;4.968;2022-08-19T01:36:46;18.10;84.71
9861;DHT22;4969;52.304;4.968;2022-08-19T01:39:17;18.12;85.08
9861;DHT22;4969;52.304;4.968;2022-08-19T01:41:46;18.16;85.24
9861;DHT22;4969;52.304;4.968;2022-08-19T01:44:14;18.16;85.29
9861;DHT22;4969;52.304;4.968;2022-08-19T01:46:41;18.12;85.08
9861;DHT22;4969;52.304;4.968;2022-08-19T01:49:09;18.07;85.20
9861;DHT22;4969;52.304;4.968;2022-08-19T01:51:36;18.03;84.90
9861;DHT22;4969;52.304;4.968;2022-08-19T01:54:03;17.99;85.07
9861;DHT22;4969;52.304;4.968;2022-08-19T01:56:30;17.97;85.31
9861;DHT22;4969;52.304;4.968;2022-08-19T01:59:00;17.90;85.11
9861;DHT22;4969;52.304;4.968;2022-08-19T02:01:28;17.90;85.26
9861;DHT22;4969;52.304;4.968;2022-08-19T02:03:57;17.92;85.42
9861;DHT22;4969;52.304;4.968;2022-08-19T02:06:25;17.93;85.62
9861;DHT22;4969;52.304;4.968;2022-08-19T02:08:51;17.93;85.63
9861;DHT22;4969;52.304;4.968;2022-08-19T02:11:20;17.97;86.10
9861;DHT22;4969;52.304;4.968;2022-08-19T02:13:47;18.06;86.03
9861;DHT22;4969;52.304;4.968;2022-08-19T02:16:16;18.09;85.76
9861;DHT22;4969;52.304;4.968;2022-08-19T02:18:42;18.07;85.61
9861;DHT22;4969;52.304;4.968;2022-08-19T02:21:09;18.07;85.52
9861;DHT22;4969;52.304;4.968;2022-08-19T02:23:36;18.07;85.55
9861;DHT22;4969;52.304;4.968;2022-08-19T02:26:02;18.10;85.58
9861;DHT22;4969;52.304;4.968;2022-08-19T02:28:29;18.12;85.45
9861;DHT22;4969;52.304;4.968;2022-08-19T02:30:55;18.09;85.29
9861;DHT22;4969;52.304;4.968;2022-08-19T02:33:24;18.04;85.02
9861;DHT22;4969;52.304;4.968;2022-08-19T02:35:50;18.02;85.15
9861;DHT22;4969;52.304;4.968;2022-08-19T02:38:17;18.04;85.41
9861;DHT22;4969;52.304;4.968;2022-08-19T02:40:53;18.04;85.62
9861;DHT22;4969;52.304;4.968;2022-08-19T02:43:21;18.04;85.24
9861;DHT22;4969;52.304;4.968;2022-08-19T02:45:48;18.03;85.48
9861;DHT22;4969;52.304;4.968;2022-08-19T02:48:17;17.99;85.65
9861;DHT22;4969;52.304;4.968;2022-08-19T02:50:45;17.96;85.77
9861;DHT22;4969;52.304;4.968;2022-08-19T02:53:13;17.89;85.38
9861;DHT22;4969;52.304;4.968;2022-08-19T02:55:44;17.85;85.86
9861;DHT22;4969;52.304;4.968;2022-08-19T02:58:11;17.89;86.11
9861;DHT22;4969;52.304;4.968;2022-08-19T03:00:42;17.86;86.36
9861;DHT22;4969;52.304;4.968;2022-08-19T03:03:09;17.86;86.43
9861;DHT22;4969;52.304;4.968;2022-08-19T03:05:36;17.89;86.52
9861;DHT22;4969;52.304;4.968;2022-08-19T03:08:04;17.86;86.26
9861;DHT22;4969;52.304;4.968;2022-08-19T03:10:31;17.85;86.49
9861;DHT22;4969;52.304;4.968;2022-08-19T03:12:58;17.79;86.26
9861;DHT22;4969;52.304;4.968;2022-08-19T03:15:24;17.76;86.58
9861;DHT22;4969;52.304;4.968;2022-08-19T03:17:51;17.76;86.62
9861;DHT22;4969;52.304;4.968;2022-08-19T03:20:18;17.75;86.55
9861;DHT22;4969;52.304;4.968;2022-08-19T03:22:44;17.75;86.83
9861;DHT22;4969;52.304;4.968;2022-08-19T03:25:12;17.72;86.68
9861;DHT22;4969;52.304;4.968;2022-08-19T03:27:39;17.71;86.69
9861;DHT22;4969;52.304;4.968;2022-08-19T03:30:06;17.65;86.51
9861;DHT22;4969;52.304;4.968;2022-08-19T03:32:34;17.62;86.73
9861;DHT22;4969;52.304;4.968;2022-08-19T03:35:00;17.57;86.67
9861;DHT22;4969;52.304;4.968;2022-08-19T03:37:27;17.57;86.79
9861;DHT22;4969;52.304;4.968;2022-08-19T03:39:53;17.54;86.76
9861;DHT22;4969;52.304;4.968;2022-08-19T03:42:21;17.57;86.62
9861;DHT22;4969;52.304;4.968;2022-08-19T03:44:48;17.58;86.93
9861;DHT22;4969;52.304;4.968;2022-08-19T03:47:14;17.54;86.87
9861;DHT22;4969;52.304;4.968;2022-08-19T03:49:42;17.57;87.10
9861;DHT22;4969;52.304;4.968;2022-08-19T03:52:08;17.54;86.94
9861;DHT22;4969;52.304;4.968;2022-08-19T03:54:35;17.51;86.88
9861;DHT22;4969;52.304;4.968;2022-08-19T03:57:03;17.51;87.14
9861;DHT22;4969;52.304;4.968;2022-08-19T03:59:33;17.44;86.91
9861;DHT22;4969;52.304;4.968;2022-08-19T04:02:03;17.48;87.40
9861;DHT22;4969;52.304;4.968;2022-08-19T04:04:34;17.52;87.43
9861;DHT22;4969;52.304;4.968;2022-08-19T04:07:00;17.45;86.82
9861;DHT22;4969;52.304;4.968;2022-08-19T04:09:27;17.41;87.05
9861;DHT22;4969;52.304;4.968;2022-08-19T04:11:55;17.41;87.26
9861;DHT22;4969;52.304;4.968;2022-08-19T04:14:24;17.38;86.94
9861;DHT22;4969;52.304;4.968;2022-08-19T04:16:53;17.38;87.51
9861;DHT22;4969;52.304;4.968;2022-08-19T04:19:20;17.35;86.93
9861;DHT22;4969;52.304;4.968;2022-08-19T04:21:49;17.32;87.03
9861;DHT22;4969;52.304;4.968;2022-08-19T04:24:16;17.31;87.00
9861;DHT22;4969;52.304;4.968;2022-08-19T04:26:43;17.34;87.67
9861;DHT22;4969;52.304;4.968;2022-08-19T04:29:12;17.38;87.45
9861;DHT22;4969;52.304;4.968;2022-08-19T04:31:39;17.40;87.77
9861;DHT22;4969;52.304;4.968;2022-08-19T04:34:09;17.38;87.67
9861;DHT22;4969;52.304;4.968;2022-08-19T04:36:38;17.42;87.92
9861;DHT22;4969;52.304;4.968;2022-08-19T04:39:08;17.51;88.30
9861;DHT22;4969;52.304;4.968;2022-08-19T04:41:35;18.06;87.94
9861;DHT22;4969;52.304;4.968;2022-08-19T04:44:22;18.86;86.32
9861;DHT22;4969;52.304;4.968;2022-08-19T04:46:50;19.35;84.80
9861;DHT22;4969;52.304;4.968;2022-08-19T04:49:20;19.63;83.64
9861;DHT22;4969;52.304;4.968;2022-08-19T04:51:49;19.83;82.81
9861;DHT22;4969;52.304;4.968;2022-08-19T04:54:17;19.99;82.02
9861;DHT22;4969;52.304;4.968;2022-08-19T04:56:45;20.14;81.24
9861;DHT22;4969;52.304;4.968;2022-08-19T04:59:12;20.23;80.83
9861;DHT22;4969;52.304;4.968;2022-08-19T05:01:39;20.33;80.23
9861;DHT22;4969;52.304;4.968;2022-08-19T05:04:09;20.43;79.91
9861;DHT22;4969;52.304;4.968;2022-08-19T05:06:37;20.52;79.51
9861;DHT22;4969;52.304;4.968;2022-08-19T05:09:04;20.63;79.10
9861;DHT22;4969;52.304;4.968;2022-08-19T05:11:33;20.68;78.85
9861;DHT22;4969;52.304;4.968;2022-08-19T05:14:00;20.69;78.70
9861;DHT22;4969;52.304;4.968;2022-08-19T05:16:27;20.86;77.85
9861;DHT22;4969;52.304;4.968;2022-08-19T05:18:54;20.99;77.23
9861;DHT22;4969;52.304;4.968;2022-08-19T05:21:41;20.79;77.69
9861;DHT22;4969;52.304;4.968;2022-08-19T05:24:26;21.06;77.01
9861;DHT22;4969;52.304;4.968;2022-08-19T05:26:53;21.18;76.80
9861;DHT22;4969;52.304;4.968;2022-08-19T05:29:23;21.24;76.39
9861;DHT22;4969;52.304;4.968;2022-08-19T05:31:50;21.38;75.91
9861;DHT22;4969;52.304;4.968;2022-08-19T05:34:18;21.37;76.06
9861;DHT22;4969;52.304;4.968;2022-08-19T05:36:46;21.44;75.65
9861;DHT22;4969;52.304;4.968;2022-08-19T05:39:16;21.47;75.57
9861;DHT22;4969;52.304;4.968;2022-08-19T05:41:43;21.57;75.37
9861;DHT22;4969;52.304;4.968;2022-08-19T05:44:10;21.61;75.35
9861;DHT22;4969;52.304;4.968;2022-08-19T05:46:37;21.65;75.12
9861;DHT22;4969;52.304;4.968;2022-08-19T05:49:05;21.73;74.84
9861;DHT22;4969;52.304;4.968;2022-08-19T05:51:32;21.76;74.73
9861;DHT22;4969;52.304;4.968;2022-08-19T05:54:01;21.86;74.50
9861;DHT22;4969;52.304;4.968;2022-08-19T05:56:28;21.93;74.31
9861;DHT22;4969;52.304;4.968;2022-08-19T05:58:55;21.91;74.52
9861;DHT22;4969;52.304;4.968;2022-08-19T06:01:25;21.96;74.34
9861;DHT22;4969;52.304;4.968;2022-08-19T06:03:52;21.96;74.02
9861;DHT22;4969;52.304;4.968;2022-08-19T06:06:19;22.03;74.17
9861;DHT22;4969;52.304;4.968;2022-08-19T06:08:46;22.14;73.85
9861;DHT22;4969;52.304;4.968;2022-08-19T06:11:19;22.10;73.72
9861;DHT22;4969;52.304;4.968;2022-08-19T06:13:47;22.12;73.79
9861;DHT22;4969;52.304;4.968;2022-08-19T06:16:16;22.05;74.06
9861;DHT22;4969;52.304;4.968;2022-08-19T06:18:48;22.16;73.86
9861;DHT22;4969;52.304;4.968;2022-08-19T06:21:17;22.27;73.33
9861;DHT22;4969;52.304;4.968;2022-08-19T06:23:45;22.23;73.63
9861;DHT22;4969;52.304;4.968;2022-08-19T06:26:12;22.26;73.60
9861;DHT22;4969;52.304;4.968;2022-08-19T06:28:41;22.28;73.47
9861;DHT22;4969;52.304;4.968;2022-08-19T06:31:12;22.33;73.33
9861;DHT22;4969;52.304;4.968;2022-08-19T06:33:39;22.45;73.14
9861;DHT22;4969;52.304;4.968;2022-08-19T06:36:06;22.38;73.10
9861;DHT22;4969;52.304;4.968;2022-08-19T06:38:33;22.40;73.06
9861;DHT22;4969;52.304;4.968;2022-08-19T06:41:01;22.40;73.13
9861;DHT22;4969;52.304;4.968;2022-08-19T06:43:28;22.40;73.36
9861;DHT22;4969;52.304;4.968;2022-08-19T06:45:56;22.41;73.27
9861;DHT22;4969;52.304;4.968;2022-08-19T06:48:24;22.45;73.15
9861;DHT22;4969;52.304;4.968;2022-08-19T06:50:50;22.47;73.21
9861;DHT22;4969;52.304;4.968;2022-08-19T06:53:17;22.44;73.34
9861;DHT22;4969;52.304;4.968;2022-08-19T06:55:44;22.41;73.46
9861;DHT22;4969;52.304;4.968;2022-08-19T06:58:10;22.43;73.57
9861;DHT22;4969;52.304;4.968;2022-08-19T07:00:37;22.37;73.76
9861;DHT22;4969;52.304;4.968;2022-08-19T07:03:05;22.36;73.91
9861;DHT22;4969;52.304;4.968;2022-08-19T07:05:38;22.37;74.09
9861;DHT22;4969;52.304;4.968;2022-08-19T07:08:04;22.30;74.43
9861;DHT22;4969;52.304;4.968;2022-08-19T07:10:31;22.41;74.23
9861;DHT22;4969;52.304;4.968;2022-08-19T07:12:59;22.48;74.11
9861;DHT22;4969;52.304;4.968;2022-08-19T07:15:26;22.61;73.90
9861;DHT22;4969;52.304;4.968;2022-08-19T07:17:52;22.61;73.87
9861;DHT22;4969;52.304;4.968;2022-08-19T07:20:20;22.60;74.01
9861;DHT22;4969;52.304;4.968;2022-08-19T07:22:47;22.57;74.15
9861;DHT22;4969;52.304;4.968;2022-08-19T07:25:13;22.65;74.05
9861;DHT22;4969;52.304;4.968;2022-08-19T07:27:41;22.64;74.22
9861;DHT22;4969;52.304;4.968;2022-08-19T07:30:09;22.63;74.31
9861;DHT22;4969;52.304;4.968;2022-08-19T07:32:37;22.54;74.59
9861;DHT22;4969;52.304;4.968;2022-08-19T07:35:04;22.51;74.77
9861;DHT22;4969;52.304;4.968;2022-08-19T07:37:32;22.57;74.86
9861;DHT22;4969;52.304;4.968;2022-08-19T07:40:00;22.58;74.87
9861;DHT22;4969;52.304;4.968;2022-08-19T07:42:27;22.63;74.84
9861;DHT22;4969;52.304;4.968;2022-08-19T07:44:54;22.75;74.76
9861;DHT22;4969;52.304;4.968;2022-08-19T07:47:21;22.72;74.83
9861;DHT22;4969;52.304;4.968;2022-08-19T07:49:47;22.79;74.79
9861;DHT22;4969;52.304;4.968;2022-08-19T07:52:14;22.92;74.31
9861;DHT22;4969;52.304;4.968;2022-08-19T07:54:43;23.10;73.57
9861;DHT22;4969;52.304;4.968;2022-08-19T07:57:09;23.12;73.44
9861;DHT22;4969;52.304;4.968;2022-08-19T07:59:36;23.04;73.89
9861;DHT22;4969;52.304;4.968;2022-08-19T08:02:03;23.09;74.00
9861;DHT22;4969;52.304;4.968;2022-08-19T08:04:30;23.09;74.00
9861;DHT22;4969;52.304;4.968;2022-08-19T08:07:15;23.15;73.60
9861;DHT22;4969;52.304;4.968;2022-08-19T08:10:00;23.30;73.12
9861;DHT22;4969;52.304;4.968;2022-08-19T08:12:30;23.29;73.46
9861;DHT22;4969;52.304;4.968;2022-08-19T08:14:58;23.29;73.45
9861;DHT22;4969;52.304;4.968;2022-08-19T08:17:28;23.29;73.56
9861;DHT22;4969;52.304;4.968;2022-08-19T08:19:55;23.19;73.82
9861;DHT22;4969;52.304;4.968;2022-08-19T08:22:23;23.16;74.17
9861;DHT22;4969;52.304;4.968;2022-08-19T08:25:08;23.15;74.31
9861;DHT22;4969;52.304;4.968;2022-08-19T08:27:35;23.13;74.40
9861;DHT22;4969;52.304;4.968;2022-08-19T08:30:05;23.16;74.42
9861;DHT22;4969;52.304;4.968;2022-08-19T08:32:34;23.10;74.79
9861;DHT22;4969;52.304;4.968;2022-08-19T08:35:01;23.18;74.57
9861;DHT22;4969;52.304;4.968;2022-08-19T08:37:27;23.19;74.47
9861;DHT22;4969;52.304;4.968;2022-08-19T08:39:54;23.33;74.42
9861;DHT22;4969;52.304;4.968;2022-08-19T08:42:26;23.37;74.17
9861;DHT22;4969;52.304;4.968;2022-08-19T08:44:59;23.47;73.73
9861;DHT22;4969;52.304;4.968;2022-08-19T08:47:29;23.61;73.21
9861;DHT22;4969;52.304;4.968;2022-08-19T08:50:01;23.65;73.45
9861;DHT22;4969;52.304;4.968;2022-08-19T08:52:31;23.67;73.34
9861;DHT22;4969;52.304;4.968;2022-08-19T08:55:04;23.86;72.41
9861;DHT22;4969;52.304;4.968;2022-08-19T08:57:36;24.09;71.32
9861;DHT22;4969;52.304;4.968;2022-08-19T09:00:06;23.79;72.14
9861;DHT22;4969;52.304;4.968;2022-08-19T09:02:33;23.88;71.76
9861;DHT22;4969;52.304;4.968;2022-08-19T09:05:00;24.12;71.37
9861;DHT22;4969;52.304;4.968;2022-08-19T09:07:37;23.81;72.22
9861;DHT22;4969;52.304;4.968;2022-08-19T09:10:11;23.68;72.56
9861;DHT22;4969;52.304;4.968;2022-08-19T09:12:47;24.14;71.22
9861;DHT22;4969;52.304;4.968;2022-08-19T09:15:21;24.05;71.49
9861;DHT22;4969;52.304;4.968;2022-08-19T09:17:48;24.21;70.66
9861;DHT22;4969;52.304;4.968;2022-08-19T09:20:18;24.43;69.75
9861;DHT22;4969;52.304;4.968;2022-08-19T09:22:45;24.63;69.45
9861;DHT22;4969;52.304;4.968;2022-08-19T09:25:17;24.48;69.14
9861;DHT22;4969;52.304;4.968;2022-08-19T09:27:47;24.43;69.22
9861;DHT22;4969;52.304;4.968;2022-08-19T09:30:17;24.48;70.36
9861;DHT22;4969;52.304;4.968;2022-08-19T09:32:45;24.32;70.22
9861;DHT22;4969;52.304;4.968;2022-08-19T09:35:13;24.35;69.77
9861;DHT22;4969;52.304;4.968;2022-08-19T09:37:41;24.35;69.63
9861;DHT22;4969;52.304;4.968;2022-08-19T09:40:09;24.17;70.00
9861;DHT22;4969;52.304;4.968;2022-08-19T09:42:36;24.40;69.48
9861;DHT22;4969;52.304;4.968;2022-08-19T09:45:05;24.51;68.94
9861;DHT22;4969;52.304;4.968;2022-08-19T09:47:32;24.67;68.05
9861;DHT22;4969;52.304;4.968;2022-08-19T09:50:01;24.53;68.35
9861;DHT22;4969;52.304;4.968;2022-08-19T09:52:28;24.68;68.47
9861;DHT22;4969;52.304;4.968;2022-08-19T09:54:54;24.72;68.23
9861;DHT22;4969;52.304;4.968;2022-08-19T09:57:20;24.60;67.16
9861;DHT22;4969;52.304;4.968;2022-08-19T09:59:47;24.47;67.82
9861;DHT22;4969;52.304;4.968;2022-08-19T10:02:15;24.54;68.01
9861;DHT22;4969;52.304;4.968;2022-08-19T10:04:41;24.84;67.21
9861;DHT22;4969;52.304;4.968;2022-08-19T10:07:25;24.61;67.26
9861;DHT22;4969;52.304;4.968;2022-08-19T10:09:52;24.46;67.72
9861;DHT22;4969;52.304;4.968;2022-08-19T10:12:19;24.35;67.70
9861;DHT22;4969;52.304;4.968;2022-08-19T10:14:45;24.43;67.39
9861;DHT22;4969;52.304;4.968;2022-08-19T10:17:12;24.39;67.78
9861;DHT22;4969;52.304;4.968;2022-08-19T10:19:40;24.30;67.73
9861;DHT22;4969;52.304;4.968;2022-08-19T10:22:06;24.26;68.41
9861;DHT22;4969;52.304;4.968;2022-08-19T10:24:33;24.27;68.47
9861;DHT22;4969;52.304;4.968;2022-08-19T10:27:01;24.21;68.47
9861;DHT22;4969;52.304;4.968;2022-08-19T10:29:29;24.13;68.64
9861;DHT22;4969;52.304;4.968;2022-08-19T10:31:57;24.26;68.66
9861;DHT22;4969;52.304;4.968;2022-08-19T10:34:26;24.23;68.24
9861;DHT22;4969;52.304;4.968;2022-08-19T10:36:54;24.20;68.59
9861;DHT22;4969;52.304;4.968;2022-08-19T10:39:21;24.41;68.29
9861;DHT22;4969;52.304;4.968;2022-08-19T10:41:48;24.51;67.93
9861;DHT22;4969;52.304;4.968;2022-08-19T10:44:14;24.57;67.71
9861;DHT22;4969;52.304;4.968;2022-08-19T10:46:43;24.60;67.66
9861;DHT22;4969;52.304;4.968;2022-08-19T10:49:12;24.46;68.34
9861;DHT22;4969;52.304;4.968;2022-08-19T10:51:39;24.63;68.19
9861;DHT22;4969;52.304;4.968;2022-08-19T10:54:25;24.75;67.40
9861;DHT22;4969;52.304;4.968;2022-08-19T10:57:12;24.86;67.11
9861;DHT22;4969;52.304;4.968;2022-08-19T10:59:38;24.84;67.00
9861;DHT22;4969;52.304;4.968;2022-08-19T11:02:07;24.88;66.97
9861;DHT22;4969;52.304;4.968;2022-08-19T11:04:34;24.95;66.40
9861;DHT22;4969;52.304;4.968;2022-08-19T11:07:02;24.96;66.36
9861;DHT22;4969;52.304;4.968;2022-08-19T11:09:31;25.05;66.15
9861;DHT22;4969;52.304;4.968;2022-08-19T11:12:03;24.99;66.04
9861;DHT22;4969;52.304;4.968;2022-08-19T11:14:30;24.92;66.44
9861;DHT22;4969;52.304;4.968;2022-08-19T11:16:58;25.06;66.20
9861;DHT22;4969;52.304;4.968;2022-08-19T11:19:24;25.15;65.86
9861;DHT22;4969;52.304;4.968;2022-08-19T11:21:52;25.20;65.56
9861;DHT22;4969;52.304;4.968;2022-08-19T11:24:21;25.11;66.06
9861;DHT22;4969;52.304;4.968;2022-08-19T11:26:51;25.13;66.00
9861;DHT22;4969;52.304;4.968;2022-08-19T11:29:20;25.13;66.13
9861;DHT22;4969;52.304;4.968;2022-08-19T11:31:51;25.03;66.50
9861;DHT22;4969;52.304;4.968;2022-08-19T11:34:21;25.18;66.09
9861;DHT22;4969;52.304;4.968;2022-08-19T11:36:49;25.19;65.81
9861;DHT22;4969;52.304;4.968;2022-08-19T11:39:18;25.26;65.89
9861;DHT22;4969;52.304;4.968;2022-08-19T11:41:45;25.31;65.38
9861;DHT22;4969;52.304;4.968;2022-08-19T11:44:14;25.31;65.42
9861;DHT22;4969;52.304;4.968;2022-08-19T11:46:42;25.44;65.31
9861;DHT22;4969;52.304;4.968;2022-08-19T11:49:11;25.34;65.34
9861;DHT22;4969;52.304;4.968;2022-08-19T11:51:37;25.31;65.41
9861;DHT22;4969;52.304;4.968;2022-08-19T11:54:05;25.30;65.12
9861;DHT22;4969;52.304;4.968;2022-08-19T11:56:32;25.43;65.10
9861;DHT22;4969;52.304;4.968;2022-08-19T11:59:00;25.30;65.30
9861;DHT22;4969;52.304;4.968;2022-08-19T12:01:28;25.39;65.42
9861;DHT22;4969;52.304;4.968;2022-08-19T12:03:56;25.44;65.24
9861;DHT22;4969;52.304;4.968;2022-08-19T12:06:25;25.60;64.92
9861;DHT22;4969;52.304;4.968;2022-08-19T12:08:54;25.60;64.76
9861;DHT22;4969;52.304;4.968;2022-08-19T12:11:21;25.80;64.18
9861;DHT22;4969;52.304;4.968;2022-08-19T12:13:48;25.66;63.31
9861;DHT22;4969;52.304;4.968;2022-08-19T12:16:18;25.39;64.48
9861;DHT22;4969;52.304;4.968;2022-08-19T12:18:47;25.51;64.42
9861;DHT22;4969;52.304;4.968;2022-08-19T12:21:13;25.78;63.60
9861;DHT22;4969;52.304;4.968;2022-08-19T12:23:40;25.82;63.21
9861;DHT22;4969;52.304;4.968;2022-08-19T12:26:09;25.85;63.26
9861;DHT22;4969;52.304;4.968;2022-08-19T12:28:37;25.71;62.92
9861;DHT22;4969;52.304;4.968;2022-08-19T12:31:03;25.75;63.42
9861;DHT22;4969;52.304;4.968;2022-08-19T12:33:30;25.88;63.12
9861;DHT22;4969;52.304;4.968;2022-08-19T12:36:02;25.88;62.48
9861;DHT22;4969;52.304;4.968;2022-08-19T12:38:30;25.84;62.97
9861;DHT22;4969;52.304;4.968;2022-08-19T12:40:57;25.91;62.52
9861;DHT22;4969;52.304;4.968;2022-08-19T12:43:24;25.99;62.65
9861;DHT22;4969;52.304;4.968;2022-08-19T12:45:50;25.98;62.50
9861;DHT22;4969;52.304;4.968;2022-08-19T12:48:17;26.02;62.76
9861;DHT22;4969;52.304;4.968;2022-08-19T12:50:45;26.18;62.31
9861;DHT22;4969;52.304;4.968;2022-08-19T12:53:14;26.18;62.46
9861;DHT22;4969;52.304;4.968;2022-08-19T12:55:41;26.26;62.27
9861;DHT22;4969;52.304;4.968;2022-08-19T12:58:08;26.25;62.30
9861;DHT22;4969;52.304;4.968;2022-08-19T13:00:35;26.09;62.37
9861;DHT22;4969;52.304;4.968;2022-08-19T13:03:01;26.21;62.16
9861;DHT22;4969;52.304;4.968;2022-08-19T13:05:30;26.29;62.08
9861;DHT22;4969;52.304;4.968;2022-08-19T13:07:58;26.22;61.92
9861;DHT22;4969;52.304;4.968;2022-08-19T13:10:31;26.33;62.02
9861;DHT22;4969;52.304;4.968;2022-08-19T13:13:00;26.49;61.71
9861;DHT22;4969;52.304;4.968;2022-08-19T13:15:28;26.58;61.51
9861;DHT22;4969;52.304;4.968;2022-08-19T13:17:57;26.68;61.44
9861;DHT22;4969;52.304;4.968;2022-08-19T13:20:24;26.63;61.27
9861;DHT22;4969;52.304;4.968;2022-08-19T13:22:51;26.78;60.93
9861;DHT22;4969;52.304;4.968;2022-08-19T13:25:18;26.74;60.57
9861;DHT22;4969;52.304;4.968;2022-08-19T13:27:48;26.70;61.01
9861;DHT22;4969;52.304;4.968;2022-08-19T13:30:17;26.58;61.43
9861;DHT22;4969;52.304;4.968;2022-08-19T13:33:16;26.56;61.48
9861;DHT22;4969;52.304;4.968;2022-08-19T13:35:46;26.57;61.05
9861;DHT22;4969;52.304;4.968;2022-08-19T13:38:15;26.53;61.55
9861;DHT22;4969;52.304;4.968;2022-08-19T13:40:42;26.47;61.60
9861;DHT22;4969;52.304;4.968;2022-08-19T13:43:09;26.43;61.62
9861;DHT22;4969;52.304;4.968;2022-08-19T13:45:36;26.47;61.44
9861;DHT22;4969;52.304;4.968;2022-08-19T13:48:04;26.53;61.34
9861;DHT22;4969;52.304;4.968;2022-08-19T13:50:34;26.54;60.74
9861;DHT22;4969;52.304;4.968;2022-08-19T13:53:01;26.39;61.07
9861;DHT22;4969;52.304;4.968;2022-08-19T13:55:29;26.37;61.19
9861;DHT22;4969;52.304;4.968;2022-08-19T13:57:58;26.35;61.53
9861;DHT22;4969;52.304;4.968;2022-08-19T14:00:31;26.40;61.46
9861;DHT22;4969;52.304;4.968;2022-08-19T14:02:58;26.39;61.04
9861;DHT22;4969;52.304;4.968;2022-08-19T14:05:25;26.37;61.42
9861;DHT22;4969;52.304;4.968;2022-08-19T14:07:53;26.33;61.74
9861;DHT22;4969;52.304;4.968;2022-08-19T14:10:20;26.33;61.81
9861;DHT22;4969;52.304;4.968;2022-08-19T14:12:48;26.47;61.68
9861;DHT22;4969;52.304;4.968;2022-08-19T14:15:15;26.44;61.46
9861;DHT22;4969;52.304;4.968;2022-08-19T14:17:44;26.40;61.60
9861;DHT22;4969;52.304;4.968;2022-08-19T14:20:12;26.50;61.30
9861;DHT22;4969;52.304;4.968;2022-08-19T14:22:40;26.53;61.27
9861;DHT22;4969;52.304;4.968;2022-08-19T14:25:10;26.50;61.12
9861;DHT22;4969;52.304;4.968;2022-08-19T14:27:39;26.56;60.97
9861;DHT22;4969;52.304;4.968;2022-08-19T14:30:07;26.57;60.97
9861;DHT22;4969;52.304;4.968;2022-08-19T14:32:34;26.47;61.11
9861;DHT22;4969;52.304;4.968;2022-08-19T14:35:02;26.43;61.38
9861;DHT22;4969;52.304;4.968;2022-08-19T14:37:29;26.46;61.36
9861;DHT22;4969;52.304;4.968;2022-08-19T14:39:55;26.47;61.31
9861;DHT22;4969;52.304;4.968;2022-08-19T14:42:22;26.49;61.27
9861;DHT22;4969;52.304;4.968;2022-08-19T14:44:48;26.46;61.14
9861;DHT22;4969;52.304;4.968;2022-08-19T14:47:15;26.49;61.12
9861;DHT22;4969;52.304;4.968;2022-08-19T14:49:41;26.49;61.45
9861;DHT22;4969;52.304;4.968;2022-08-19T14:52:10;26.57;61.00
9861;DHT22;4969;52.304;4.968;2022-08-19T14:54:36;26.68;60.30
9861;DHT22;4969;52.304;4.968;2022-08-19T14:57:03;26.65;60.35
9861;DHT22;4969;52.304;4.968;2022-08-19T14:59:29;26.70;60.51
9861;DHT22;4969;52.304;4.968;2022-08-19T15:01:56;26.74;60.01
9861;DHT22;4969;52.304;4.968;2022-08-19T15:04:24;26.67;60.31
9861;DHT22;4969;52.304;4.968;2022-08-19T15:06:51;26.63;59.89
9861;DHT22;4969;52.304;4.968;2022-08-19T15:09:19;26.32;60.07
9861;DHT22;4969;52.304;4.968;2022-08-19T15:11:45;25.81;60.90
9861;DHT22;4969;52.304;4.968;2022-08-19T15:14:13;25.74;62.12
9861;DHT22;4969;52.304;4.968;2022-08-19T15:16:40;25.78;62.19
9861;DHT22;4969;52.304;4.968;2022-08-19T15:19:07;25.92;61.96
9861;DHT22;4969;52.304;4.968;2022-08-19T15:21:34;26.01;62.02
9861;DHT22;4969;52.304;4.968;2022-08-19T15:24:02;26.01;61.83
9861;DHT22;4969;52.304;4.968;2022-08-19T15:26:31;25.92;62.22
9861;DHT22;4969;52.304;4.968;2022-08-19T15:28:58;26.21;61.68
9861;DHT22;4969;52.304;4.968;2022-08-19T15:31:26;25.89;61.74
9861;DHT22;4969;52.304;4.968;2022-08-19T15:33:53;25.82;62.52
9861;DHT22;4969;52.304;4.968;2022-08-19T15:36:23;25.96;62.26
9861;DHT22;4969;52.304;4.968;2022-08-19T15:38:51;25.92;62.12
9861;DHT22;4969;52.304;4.968;2022-08-19T15:41:19;25.94;62.35
9861;DHT22;4969;52.304;4.968;2022-08-19T15:43:53;25.81;62.73
9861;DHT22;4969;52.304;4.968;2022-08-19T15:46:23;25.82;62.82
9861;DHT22;4969;52.304;4.968;2022-08-19T15:48:50;25.82;62.47
9861;DHT22;4969;52.304;4.968;2022-08-19T15:51:18;25.74;62.74
9861;DHT22;4969;52.304;4.968;2022-08-19T15:53:45;25.61;63.21
9861;DHT22;4969;52.304;4.968;2022-08-19T15:56:11;25.64;63.56
9861;DHT22;4969;52.304;4.968;2022-08-19T15:58:38;25.77;63.33
9861;DHT22;4969;52.304;4.968;2022-08-19T16:01:24;25.85;62.16
9861;DHT22;4969;52.304;4.968;2022-08-19T16:04:07;25.92;62.50
9861;DHT22;4969;52.304;4.968;2022-08-19T16:06:54;25.92;62.98
9861;DHT22;4969;52.304;4.968;2022-08-19T16:09:22;25.89;62.96